Time;durP1;ratioP1;P1;durP2;ratioP2;P2;SDS_P1;SDS_P2;PMS_P1;PMS_P2;Temp;Humidity;BMP_temperature;BMP_pressure;BME280_temperature;BME280_humidity;BME280_pressure;Samples;Min_cycle;Max_cycle;Signal;HPM_P1;HPM_P2
2022/02/26 00:00:55;;;;;;;23.67;8.52;;;5.50;72.50;;;;;;5037113;28;20053;-75
2022/02/26 00:03:20;;;;;;;17.55;8.00;;;5.50;72.30;;;;;;5056481;28;20036;-75
2022/02/26 00:05:48;;;;;;;16.90;7.28;;;5.50;72.40;;;;;;5037171;28;20025;-75
2022/02/26 00:08:13;;;;;;;17.05;7.40;;;5.50;72.30;;;;;;5036545;28;20041;-75
2022/02/26 00:10:39;;;;;;;11.07;6.68;;;5.50;72.70;;;;;;5036572;28;20036;-75
2022/02/26 00:13:05;;;;;;;14.65;6.43;;;5.50;72.70;;;;;;5035710;28;20560;-75
2022/02/26 00:15:30;;;;;;;17.20;6.25;;;5.50;72.90;;;;;;5044928;28;20017;-75
2022/02/26 00:17:56;;;;;;;18.17;5.78;;;5.50;73.30;;;;;;5076761;28;20024;-75
2022/02/26 00:20:22;;;;;;;17.33;5.55;;;5.50;74.40;;;;;;5071800;28;20635;-75
2022/02/26 00:22:47;;;;;;;13.13;4.70;;;5.50;74.00;;;;;;5050576;28;20032;-75
2022/02/26 00:25:14;;;;;;;13.77;5.43;;;5.60;74.00;;;;;;5035849;28;20083;-75
2022/02/26 00:27:39;;;;;;;18.63;4.95;;;5.60;74.30;;;;;;5035651;28;20504;-75
2022/02/26 00:30:06;;;;;;;18.75;4.38;;;5.60;73.90;;;;;;5035383;28;20108;-75
2022/02/26 00:32:32;;;;;;;14.45;4.28;;;5.60;74.10;;;;;;5051233;28;20025;-75
2022/02/26 00:34:58;;;;;;;22.20;5.20;;;5.60;74.00;;;;;;5055280;28;20025;-75
2022/02/26 00:37:23;;;;;;;18.38;4.32;;;5.60;74.00;;;;;;5055242;28;20450;-75
2022/02/26 00:39:49;;;;;;;12.20;4.88;;;5.70;73.70;;;;;;5050706;28;20070;-75
2022/02/26 00:42:15;;;;;;;10.35;4.32;;;5.70;73.80;;;;;;5035066;28;20033;-75
2022/02/26 00:44:40;;;;;;;11.88;4.90;;;5.70;74.30;;;;;;5035140;28;20021;-75
2022/02/26 00:47:07;;;;;;;13.32;5.10;;;5.70;73.70;;;;;;5035108;28;20079;-75
2022/02/26 00:49:49;;;;;;;12.57;3.85;;;5.70;73.90;;;;;;5034611;28;20026;-75
2022/02/26 00:52:19;;;;;;;12.60;4.75;;;5.60;73.80;;;;;;5035153;28;20496;-75
2022/02/26 00:54:45;;;;;;;13.60;4.60;;;5.50;73.90;;;;;;5052490;28;20036;-75
2022/02/26 00:57:11;;;;;;;14.05;4.07;;;5.50;74.10;;;;;;5036138;28;20030;-75
2022/02/26 00:59:37;;;;;;;18.00;4.63;;;5.50;74.00;;;;;;5055719;28;20104;-75
2022/02/26 01:02:05;;;;;;;8.77;4.28;;;5.50;74.10;;;;;;5050168;28;20060;-75
2022/02/26 01:04:31;;;;;;;12.70;4.25;;;5.50;74.30;;;;;;5034954;28;20031;-75
2022/02/26 01:06:56;;;;;;;16.92;4.85;;;5.50;74.00;;;;;;5035441;28;20089;-75
2022/02/26 01:09:22;;;;;;;21.00;4.95;;;5.50;74.00;;;;;;5034434;28;20103;-75
2022/02/26 01:11:48;;;;;;;10.38;4.55;;;5.40;73.70;;;;;;5054125;28;20129;-75
2022/02/26 01:14:14;;;;;;;17.73;4.70;;;5.40;74.40;;;;;;5052562;28;20495;-75
2022/02/26 01:16:39;;;;;;;20.90;5.28;;;5.40;74.40;;;;;;5068639;28;20028;-75
2022/02/26 01:19:06;;;;;;;13.65;4.00;;;5.40;74.60;;;;;;5074221;28;20526;-75
2022/02/26 01:21:32;;;;;;;10.82;4.32;;;5.50;74.50;;;;;;5052303;28;20034;-75
2022/02/26 01:23:59;;;;;;;14.13;4.20;;;5.50;74.30;;;;;;5054036;28;20025;-75
2022/02/26 01:26:25;;;;;;;20.73;4.97;;;5.50;74.30;;;;;;5054351;28;20511;-75
2022/02/26 01:28:51;;;;;;;13.48;4.22;;;5.50;74.60;;;;;;5043714;28;20495;-75
2022/02/26 01:31:17;;;;;;;14.93;3.70;;;5.50;74.60;;;;;;5035513;28;20049;-75
2022/02/26 01:33:44;;;;;;;11.27;4.68;;;5.40;74.70;;;;;;5035642;28;20044;-75
2022/02/26 01:36:10;;;;;;;11.40;3.67;;;5.40;74.30;;;;;;5035743;28;20098;-75
2022/02/26 01:38:36;;;;;;;12.35;3.92;;;5.40;74.40;;;;;;5033761;28;20033;-75
2022/02/26 01:41:03;;;;;;;13.57;4.13;;;5.40;74.90;;;;;;5035470;28;20053;-75
2022/02/26 01:43:29;;;;;;;11.77;3.65;;;5.40;74.40;;;;;;5046254;28;20062;-74
2022/02/26 01:45:54;;;;;;;14.70;4.30;;;5.40;74.40;;;;;;5055347;28;20446;-74
2022/02/26 01:48:21;;;;;;;15.38;4.63;;;5.40;74.30;;;;;;5054043;28;20067;-74
2022/02/26 01:50:46;;;;;;;12.48;4.75;;;5.40;74.30;;;;;;5048245;28;20404;-74
2022/02/26 01:53:13;;;;;;;17.67;4.70;;;5.40;74.80;;;;;;5035040;28;20032;-74
2022/02/26 01:55:39;;;;;;;19.05;4.60;;;5.40;74.50;;;;;;5035216;28;20036;-74
2022/02/26 01:58:05;;;;;;;16.02;4.20;;;5.40;74.60;;;;;;5035514;28;20017;-74
2022/02/26 02:00:31;;;;;;;8.93;4.18;;;5.40;74.90;;;;;;5034154;28;20531;-74
2022/02/26 02:02:57;;;;;;;14.65;4.20;;;5.40;74.60;;;;;;5033631;28;20057;-74
2022/02/26 02:05:29;;;;;;;18.52;4.80;;;5.40;74.60;;;;;;5035209;28;20082;-74
2022/02/26 02:07:55;;;;;;;13.40;3.83;;;5.30;74.50;;;;;;5033470;28;20033;-74
2022/02/26 02:10:22;;;;;;;18.73;4.22;;;5.40;74.30;;;;;;5033839;28;20037;-74
2022/02/26 02:12:48;;;;;;;13.50;4.85;;;5.30;74.50;;;;;;5034814;28;20373;-75
2022/02/26 02:15:14;;;;;;;16.50;4.88;;;5.30;74.60;;;;;;5035188;28;20095;-75
2022/02/26 02:17:43;;;;;;;14.15;4.90;;;5.20;74.50;;;;;;5033934;28;20391;-74
2022/02/26 02:20:10;;;;;;;10.25;4.50;;;5.20;74.80;;;;;;5035244;28;20034;-74
2022/02/26 02:22:36;;;;;;;14.20;5.10;;;5.20;74.70;;;;;;5051365;28;20423;-75
2022/02/26 02:25:03;;;;;;;12.30;4.35;;;5.20;74.80;;;;;;5044057;28;20029;-75
2022/02/26 02:27:29;;;;;;;16.58;5.65;;;5.20;74.90;;;;;;5059045;28;20028;-74
2022/02/26 02:29:56;;;;;;;17.55;6.00;;;5.20;75.10;;;;;;5051079;28;20718;-75
2022/02/26 02:32:22;;;;;;;23.75;5.43;;;5.10;75.30;;;;;;5037916;28;20396;-74
2022/02/26 02:34:48;;;;;;;13.93;5.05;;;5.20;75.00;;;;;;5037262;28;20040;-74
2022/02/26 02:37:13;;;;;;;13.95;5.03;;;5.20;74.90;;;;;;5037366;28;20108;-74
2022/02/26 02:39:42;;;;;;;13.07;4.68;;;5.20;75.30;;;;;;5037508;28;20029;-74
2022/02/26 02:42:08;;;;;;;17.15;4.47;;;5.20;75.30;;;;;;5039182;28;20073;-74
2022/02/26 02:44:34;;;;;;;20.38;5.57;;;5.20;75.20;;;;;;5037680;28;20048;-74
2022/02/26 02:47:00;;;;;;;12.77;4.13;;;5.20;75.30;;;;;;5045771;28;20064;-74
2022/02/26 02:49:26;;;;;;;15.30;4.28;;;5.20;75.40;;;;;;5056588;28;20443;-74
2022/02/26 02:51:51;;;;;;;13.50;4.68;;;5.20;75.60;;;;;;5038565;28;20029;-74
2022/02/26 02:54:17;;;;;;;13.88;4.00;;;5.20;75.10;;;;;;5037022;28;20017;-74
2022/02/26 02:56:43;;;;;;;11.85;3.05;;;5.20;75.00;;;;;;5037494;28;20029;-74
2022/02/26 02:59:09;;;;;;;17.10;4.00;;;5.20;75.80;;;;;;5038094;28;20044;-74
2022/02/26 03:01:35;;;;;;;8.90;3.70;;;5.20;75.50;;;;;;5037338;28;20033;-74
2022/02/26 03:04:01;;;;;;;13.27;3.70;;;5.20;75.30;;;;;;5037160;28;20036;-73
2022/02/26 03:06:27;;;;;;;12.73;3.53;;;5.10;75.50;;;;;;5038435;28;20033;-74
2022/02/26 03:08:53;;;;;;;9.70;3.75;;;5.10;75.80;;;;;;5036618;28;20471;-74
2022/02/26 03:11:20;;;;;;;16.13;3.95;;;5.10;75.60;;;;;;5038055;28;20061;-73
2022/02/26 03:13:46;;;;;;;14.90;4.15;;;5.10;75.40;;;;;;5037087;28;20025;-74
2022/02/26 03:16:12;;;;;;;11.25;3.30;;;5.10;75.80;;;;;;5056964;28;20103;-74
2022/02/26 03:18:38;;;;;;;7.13;3.63;;;5.10;75.50;;;;;;5076874;28;20021;-74
2022/02/26 03:21:04;;;;;;;14.05;4.45;;;5.10;75.70;;;;;;5042436;28;20104;-74
2022/02/26 03:23:30;;;;;;;11.80;3.67;;;5.10;75.90;;;;;;5048588;28;20025;-74
2022/02/26 03:25:56;;;;;;;14.85;3.15;;;5.10;76.10;;;;;;5051859;28;20064;-74
2022/02/26 03:28:21;;;;;;;14.23;3.42;;;5.10;76.10;;;;;;5037981;28;20033;-74
2022/02/26 03:30:48;;;;;;;11.60;2.85;;;5.10;76.10;;;;;;5037681;28;20108;-74
2022/02/26 03:33:14;;;;;;;10.43;3.53;;;5.10;76.20;;;;;;5036004;28;20052;-74
2022/02/26 03:35:39;;;;;;;14.02;3.97;;;5.10;76.20;;;;;;5036636;28;20029;-74
2022/02/26 03:38:06;;;;;;;10.85;4.05;;;5.10;76.10;;;;;;5035916;28;20056;-74
2022/02/26 03:40:32;;;;;;;11.82;3.80;;;5.10;75.80;;;;;;5037505;28;20029;-74
2022/02/26 03:42:57;;;;;;;10.02;3.03;;;5.10;76.00;;;;;;5037553;28;20078;-74
2022/02/26 03:45:23;;;;;;;10.23;3.03;;;5.00;75.70;;;;;;5036572;28;20029;-74
2022/02/26 03:47:49;;;;;;;11.70;4.93;;;5.00;75.90;;;;;;5037707;28;20044;-74
2022/02/26 03:50:15;;;;;;;14.95;4.47;;;5.00;75.60;;;;;;5037030;28;20025;-74
2022/02/26 03:52:40;;;;;;;12.23;3.65;;;4.90;76.00;;;;;;5037409;28;20365;-74
2022/02/26 03:55:07;;;;;;;20.90;4.35;;;4.90;76.00;;;;;;5037300;28;20026;-74
2022/02/26 03:57:33;;;;;;;12.02;3.70;;;4.90;76.10;;;;;;5037504;28;20022;-74
2022/02/26 03:59:59;;;;;;;14.57;4.10;;;4.90;76.20;;;;;;5037304;28;20036;-74
2022/02/26 04:02:25;;;;;;;15.75;4.82;;;4.80;76.30;;;;;;5035954;28;20033;-74
2022/02/26 04:04:50;;;;;;;13.38;4.30;;;4.80;76.40;;;;;;5037090;28;20033;-74
2022/02/26 04:07:17;;;;;;;11.63;4.32;;;4.80;76.30;;;;;;5035421;28;20022;-74
2022/02/26 04:09:42;;;;;;;14.68;4.95;;;4.70;76.40;;;;;;5035514;28;20123;-74
2022/02/26 04:12:09;;;;;;;15.88;4.88;;;4.70;76.30;;;;;;5035928;28;20029;-74
2022/02/26 04:14:34;;;;;;;9.82;5.00;;;4.60;76.20;;;;;;5035641;28;20026;-74
2022/02/26 04:17:00;;;;;;;8.98;4.85;;;4.50;76.40;;;;;;5069477;28;20040;-74
2022/02/26 04:19:26;;;;;;;15.38;5.85;;;4.50;76.50;;;;;;5076795;28;20426;-74
2022/02/26 04:21:52;;;;;;;11.07;4.95;;;4.40;76.50;;;;;;5075844;28;20114;-74
2022/02/26 04:24:18;;;;;;;12.18;5.47;;;4.40;76.50;;;;;;5041619;28;20030;-74
2022/02/26 04:26:44;;;;;;;12.90;4.72;;;4.40;76.60;;;;;;5035537;28;20036;-74
2022/02/26 04:29:11;;;;;;;15.68;5.10;;;4.40;76.60;;;;;;5035220;28;20026;-74
2022/02/26 04:31:37;;;;;;;22.58;5.60;;;4.40;76.70;;;;;;5049756;28;20058;-74
2022/02/26 04:34:03;;;;;;;15.77;6.65;;;4.40;76.60;;;;;;5056588;28;20383;-74
2022/02/26 04:36:28;;;;;;;7.07;4.05;;;4.40;76.60;;;;;;5040716;28;20032;-74
2022/02/26 04:38:54;;;;;;;11.77;5.07;;;4.40;76.60;;;;;;5041608;28;20132;-74
2022/02/26 04:41:20;;;;;;;16.02;5.47;;;4.40;76.40;;;;;;5055113;28;20025;-74
2022/02/26 04:43:46;;;;;;;8.52;4.05;;;4.40;76.60;;;;;;5055223;28;20082;-74
2022/02/26 04:46:11;;;;;;;8.80;4.55;;;4.40;76.80;;;;;;5053027;28;20124;-74
2022/02/26 04:48:37;;;;;;;10.32;4.30;;;4.30;76.60;;;;;;5055197;28;20025;-74
2022/02/26 04:51:06;;;;;;;14.93;5.05;;;4.30;76.60;;;;;;5050838;28;20026;-74
2022/02/26 04:53:32;;;;;;;13.70;3.97;;;4.30;77.00;;;;;;5034838;28;20445;-74
2022/02/26 04:55:57;;;;;;;13.35;4.70;;;4.30;76.70;;;;;;5048510;28;20063;-74
2022/02/26 04:58:23;;;;;;;17.67;4.50;;;4.30;76.70;;;;;;5051932;28;20033;-74
2022/02/26 05:00:49;;;;;;;13.98;4.18;;;4.30;76.60;;;;;;5034506;28;20128;-74
2022/02/26 05:03:14;;;;;;;16.42;5.20;;;4.30;77.20;;;;;;5034937;28;20029;-74
2022/02/26 05:05:40;;;;;;;11.95;4.55;;;4.30;77.30;;;;;;5036320;28;20033;-73
2022/02/26 05:08:06;;;;;;;20.33;4.93;;;4.30;77.10;;;;;;5034533;28;20062;-74
2022/02/26 05:10:31;;;;;;;15.55;3.72;;;4.30;76.60;;;;;;5035785;28;20507;-74
2022/02/26 05:12:57;;;;;;;17.20;4.18;;;4.40;76.50;;;;;;5045143;28;20037;-74
2022/02/26 05:15:24;;;;;;;12.75;4.10;;;4.40;76.80;;;;;;5058299;28;20040;-74
2022/02/26 05:17:49;;;;;;;11.43;3.75;;;4.40;76.50;;;;;;5075762;28;20035;-74
2022/02/26 05:20:15;;;;;;;16.40;5.20;;;4.40;76.40;;;;;;5050603;28;20029;-74
2022/02/26 05:22:42;;;;;;;8.80;3.10;;;4.30;76.70;;;;;;5054222;28;20029;-74
2022/02/26 05:25:10;;;;;;;17.75;4.00;;;4.30;76.60;;;;;;5049651;28;20051;-74
2022/02/26 05:27:37;;;;;;;9.02;3.22;;;4.20;76.70;;;;;;5034360;28;20059;-74
2022/02/26 05:30:07;;;;;;;9.50;3.75;;;4.30;76.60;;;;;;5034192;28;20033;-74
2022/02/26 05:32:33;;;;;;;10.80;3.42;;;4.20;76.70;;;;;;5049457;28;20034;-74
2022/02/26 05:34:59;;;;;;;11.13;3.53;;;4.30;76.60;;;;;;5035205;28;20079;-74
2022/02/26 05:37:24;;;;;;;9.73;3.63;;;4.20;77.00;;;;;;5035796;28;20099;-74
2022/02/26 05:39:50;;;;;;;16.50;4.65;;;4.20;77.00;;;;;;5033965;28;20029;-74
2022/02/26 05:42:16;;;;;;;13.38;3.97;;;4.20;76.80;;;;;;5035605;28;20108;-74
2022/02/26 05:44:42;;;;;;;11.52;3.95;;;4.30;76.80;;;;;;5035498;28;20033;-74
2022/02/26 05:47:08;;;;;;;6.32;2.72;;;4.20;77.00;;;;;;5043711;28;20411;-73
2022/02/26 05:49:33;;;;;;;6.65;3.20;;;4.20;77.30;;;;;;5054110;28;20033;-74
2022/02/26 05:51:59;;;;;;;6.75;3.65;;;4.20;77.30;;;;;;5055080;28;20021;-74
2022/02/26 05:54:25;;;;;;;10.85;3.72;;;4.20;77.10;;;;;;5049472;28;20031;-73
2022/02/26 05:56:51;;;;;;;18.63;4.10;;;4.20;77.00;;;;;;5035137;28;20059;-74
2022/02/26 05:59:16;;;;;;;9.73;3.10;;;4.20;77.40;;;;;;5050693;28;20029;-74
2022/02/26 06:01:42;;;;;;;13.05;3.53;;;4.20;77.30;;;;;;5035153;28;20044;-74
2022/02/26 06:04:08;;;;;;;13.55;4.15;;;4.20;77.10;;;;;;5035215;28;20042;-74
2022/02/26 06:06:34;;;;;;;6.82;3.50;;;4.20;76.90;;;;;;5033782;28;20087;-74
2022/02/26 06:08:59;;;;;;;12.30;3.78;;;4.20;76.80;;;;;;5033391;28;20060;-74
2022/02/26 06:11:26;;;;;;;7.32;3.40;;;4.10;77.00;;;;;;5035145;28;20046;-74
2022/02/26 06:13:53;;;;;;;7.75;3.03;;;4.20;76.70;;;;;;5034999;28;20370;-74
2022/02/26 06:16:19;;;;;;;8.65;3.60;;;4.10;76.80;;;;;;5055987;28;20054;-74
2022/02/26 06:18:44;;;;;;;11.95;3.83;;;4.10;76.90;;;;;;5068874;28;20659;-74
2022/02/26 06:21:10;;;;;;;11.38;3.30;;;4.20;77.10;;;;;;5054796;28;20474;-74
2022/02/26 06:23:36;;;;;;;7.90;3.17;;;4.10;77.50;;;;;;5043492;28;20077;-74
2022/02/26 06:26:02;;;;;;;14.00;3.53;;;4.00;77.40;;;;;;5042495;28;20025;-74
2022/02/26 06:28:27;;;;;;;8.32;2.90;;;4.00;77.80;;;;;;5034989;28;20026;-74
2022/02/26 06:30:53;;;;;;;11.27;2.88;;;4.00;77.80;;;;;;5033757;28;20434;-74
2022/02/26 06:33:19;;;;;;;14.30;3.83;;;4.10;77.70;;;;;;5034697;28;20029;-74
2022/02/26 06:35:45;;;;;;;10.48;3.97;;;4.10;77.80;;;;;;5033367;28;20618;-81
2022/02/26 06:38:11;;;;;;;12.30;3.90;;;4.10;77.90;;;;;;5036761;28;20055;-81
2022/02/26 08:38:53;;;;;;;10.82;4.25;;;9.30;59.40;;;;;;5071857;28;20379;-79
2022/02/26 08:41:19;;;;;;;10.93;3.72;;;9.10;59.60;;;;;;5060438;28;20025;-77
2022/02/26 08:43:45;;;;;;;10.13;4.18;;;9.20;59.90;;;;;;5052216;28;20018;-76
2022/02/26 08:46:11;;;;;;;8.75;3.83;;;9.60;58.90;;;;;;5052293;28;20025;-78
2022/02/26 08:48:36;;;;;;;15.80;4.38;;;10.00;56.50;;;;;;5051092;28;20057;-80
2022/02/26 08:51:02;;;;;;;9.88;3.33;;;10.30;56.10;;;;;;5050896;28;20183;-78
2022/02/26 08:53:28;;;;;;;10.45;4.07;;;10.50;55.80;;;;;;5052051;28;20059;-81
2022/02/26 08:55:53;;;;;;;11.40;3.88;;;10.60;55.30;;;;;;5050570;28;20026;-76
2022/02/26 08:58:20;;;;;;;11.05;3.85;;;10.50;55.30;;;;;;5052102;28;20148;-77
2022/02/26 09:00:47;;;;;;;12.10;3.78;;;10.70;55.00;;;;;;5050139;28;20082;-76
2022/02/26 09:03:13;;;;;;;16.17;4.65;;;10.90;54.60;;;;;;5069969;28;20102;-77
2022/02/26 09:05:38;;;;;;;10.77;3.53;;;11.20;53.70;;;;;;5070394;28;20025;-77
2022/02/26 09:08:04;;;;;;;9.10;3.42;;;11.40;53.10;;;;;;5066349;28;20062;-78
2022/02/26 09:10:30;;;;;;;11.43;3.58;;;11.80;53.20;;;;;;5070484;28;20127;-78
2022/02/26 09:12:56;;;;;;;10.77;4.60;;;11.50;52.90;;;;;;5068888;28;20025;-78
2022/02/26 09:15:21;;;;;;;6.15;2.85;;;11.10;53.40;;;;;;5073225;28;20023;-77
2022/02/26 09:17:47;;;;;;;9.13;2.70;;;11.20;54.50;;;;;;5071258;28;20145;-78
2022/02/26 09:20:13;;;;;;;6.95;2.92;;;10.80;54.60;;;;;;5071084;28;20107;-77
2022/02/26 09:22:40;;;;;;;11.05;3.40;;;10.30;56.30;;;;;;5068838;28;20697;-78
2022/02/26 09:25:07;;;;;;;7.90;3.17;;;9.70;57.50;;;;;;5069667;28;20434;-78
2022/02/26 09:27:32;;;;;;;8.98;3.42;;;9.60;58.90;;;;;;5069630;28;20107;-77
2022/02/26 09:29:58;;;;;;;11.65;3.45;;;9.30;59.60;;;;;;5069513;28;20017;-78
2022/02/26 09:32:27;;;;;;;9.48;3.10;;;9.20;59.50;;;;;;5068358;28;20589;-77
2022/02/26 09:34:53;;;;;;;10.23;2.80;;;9.20;59.60;;;;;;5066540;28;20040;-78
2022/02/26 09:37:19;;;;;;;7.43;2.75;;;9.50;59.60;;;;;;5064774;28;20051;-77
2022/02/26 09:39:45;;;;;;;10.00;3.78;;;10.00;58.10;;;;;;5070377;28;20088;-77
2022/02/26 09:42:11;;;;;;;8.45;4.28;;;10.30;56.40;;;;;;5069508;28;20028;-77
2022/02/26 09:44:37;;;;;;;10.00;4.80;;;10.70;55.10;;;;;;5070552;28;20114;-77
2022/02/26 09:47:03;;;;;;;9.23;4.53;;;11.10;53.20;;;;;;5067518;28;20032;-77
2022/02/26 09:49:29;;;;;;;7.15;3.75;;;11.80;51.60;;;;;;5061274;28;20092;-78
2022/02/26 09:51:56;;;;;;;9.57;3.50;;;12.90;49.90;;;;;;5054452;28;20048;-77
2022/02/26 09:54:21;;;;;;;11.75;4.50;;;13.40;47.00;;;;;;5052475;28;20101;-78
2022/02/26 09:56:47;;;;;;;12.10;3.85;;;13.80;46.00;;;;;;5051461;28;20076;-76
2022/02/26 09:59:13;;;;;;;8.73;4.05;;;13.80;45.00;;;;;;5053825;28;20033;-77
2022/02/26 10:02:00;;;;;;;10.82;3.85;;;13.80;45.10;;;;;;5055353;28;20029;-75
2022/02/26 10:04:27;;;;;;;11.55;4.60;;;13.80;45.00;;;;;;5051680;28;20187;-76
2022/02/26 10:07:13;;;;;;;9.20;4.38;;;13.70;45.10;;;;;;5052032;28;20036;-81
2022/02/26 10:09:45;;;;;;;9.55;4.53;;;13.90;45.40;;;;;;5050661;28;20024;-78
2022/02/26 10:12:28;;;;;;;10.45;4.15;;;13.50;45.10;;;;;;5057424;28;20549;-80
2022/02/26 10:14:56;;;;;;;8.93;3.65;;;13.10;46.30;;;;;;5054372;28;20124;-81
2022/02/26 10:17:30;;;;;;;7.70;3.55;;;13.20;46.80;;;;;;5055054;28;20400;-80
2022/02/26 10:20:12;;;;;;;7.43;3.83;;;12.90;47.70;;;;;;5048985;28;20057;-80
2022/02/26 10:22:41;;;;;;;8.80;3.67;;;12.60;48.90;;;;;;5052682;28;20432;-80
2022/02/26 10:25:11;;;;;;;9.20;3.05;;;12.40;48.50;;;;;;5056606;28;20017;-80
2022/02/26 10:27:45;;;;;;;8.57;2.77;;;11.90;49.50;;;;;;5055265;28;20049;-79
2022/02/26 10:30:23;;;;;;;14.73;3.22;;;11.30;51.50;;;;;;5039765;28;20343;-79
2022/02/26 10:33:08;;;;;;;9.23;2.90;;;11.00;53.00;;;;;;5045751;28;20029;-79
2022/02/26 10:35:54;;;;;;;6.45;2.58;;;10.80;54.00;;;;;;5055539;28;20064;-79
2022/02/26 10:38:27;;;;;;;7.85;2.40;;;10.50;55.60;;;;;;5053178;28;20041;-79
2022/02/26 10:41:09;;;;;;;7.75;3.33;;;10.30;55.90;;;;;;5056226;28;20032;-79
2022/02/26 10:43:37;;;;;;;8.70;3.45;;;10.20;56.70;;;;;;5054106;28;20071;-79
2022/02/26 10:46:27;;;;;;;9.38;3.00;;;10.30;57.60;;;;;;5053770;28;20060;-79
2022/02/26 10:48:58;;;;;;;10.68;5.18;;;10.30;55.90;;;;;;5055640;28;20030;-79
2022/02/26 10:51:36;;;;;;;7.40;2.60;;;10.10;55.90;;;;;;5052518;28;20032;-80
2022/02/26 10:54:17;;;;;;;8.23;3.40;;;10.10;56.80;;;;;;5053827;28;20028;-79
2022/02/26 10:56:47;;;;;;;10.85;3.25;;;10.10;57.60;;;;;;5052788;28;20035;-79
2022/02/26 10:59:29;;;;;;;8.45;2.88;;;10.20;56.80;;;;;;5048751;28;20029;-79
2022/02/26 11:01:59;;;;;;;9.70;3.45;;;10.20;57.20;;;;;;5047960;28;20037;-80
2022/02/26 11:04:25;;;;;;;12.80;3.67;;;10.20;57.10;;;;;;5051256;28;20410;-83
2022/02/26 11:06:52;;;;;;;6.85;3.15;;;10.20;57.00;;;;;;5056244;28;20045;-84
2022/02/26 11:09:20;;;;;;;8.10;2.65;;;10.20;57.30;;;;;;5054261;28;20025;-80
2022/02/26 11:11:49;;;;;;;10.45;3.08;;;10.30;57.90;;;;;;5050298;28;20147;-78
2022/02/26 11:14:16;;;;;;;6.75;2.95;;;10.40;56.30;;;;;;5050106;28;20487;-79
2022/02/26 11:16:43;;;;;;;15.55;3.95;;;10.40;56.30;;;;;;5046216;28;20104;-77
2022/02/26 11:19:12;;;;;;;10.32;2.85;;;10.50;55.90;;;;;;5043771;28;20029;-80
2022/02/26 11:21:39;;;;;;;8.68;3.63;;;10.50;56.60;;;;;;5043162;28;20080;-78
2022/02/26 11:24:07;;;;;;;6.90;3.20;;;10.50;55.20;;;;;;5049079;28;20043;-77
2022/02/26 11:26:34;;;;;;;6.28;3.33;;;10.60;54.60;;;;;;5042946;28;20029;-78
2022/02/26 11:29:05;;;;;;;8.45;2.70;;;10.50;54.90;;;;;;5040169;28;20548;-77
2022/02/26 11:32:02;;;;;;;9.48;2.75;;;10.70;55.10;;;;;;5041507;28;20021;-80
2022/02/26 11:34:28;;;;;;;5.32;2.60;;;10.60;53.90;;;;;;5049632;28;20025;-77
2022/02/26 11:37:01;;;;;;;6.43;3.75;;;10.70;54.10;;;;;;5042292;28;20575;-78
2022/02/26 11:39:35;;;;;;;6.22;2.90;;;10.80;53.80;;;;;;5042318;28;20025;-79
2022/02/26 11:42:13;;;;;;;7.53;2.58;;;10.90;53.80;;;;;;5051992;28;20088;-81
2022/02/26 11:44:59;;;;;;;17.17;2.70;;;10.90;52.00;;;;;;5048818;28;20032;-78
2022/02/26 11:47:34;;;;;;;9.73;2.72;;;10.70;51.40;;;;;;5047683;28;20045;-80
2022/02/26 11:50:31;;;;;;;7.80;2.80;;;10.70;50.30;;;;;;5045691;28;20212;-77
2022/02/26 11:53:15;;;;;;;4.80;2.13;;;10.80;50.70;;;;;;5034989;28;20389;-81
2022/02/26 11:55:47;;;;;;;3.97;1.90;;;10.80;50.90;;;;;;5056290;28;20021;-85
2022/02/26 11:58:34;;;;;;;5.65;2.28;;;10.90;51.60;;;;;;5051073;28;20041;-77
2022/02/26 12:01:01;;;;;;;4.97;2.03;;;10.90;50.80;;;;;;5042904;28;20026;-78
2022/02/26 12:03:32;;;;;;;3.72;2.22;;;11.00;51.50;;;;;;5050527;28;20061;-77
2022/02/26 12:06:11;;;;;;;7.88;3.10;;;11.00;50.80;;;;;;5047370;28;20033;-78
2022/02/26 12:08:53;;;;;;;4.22;2.22;;;11.00;49.00;;;;;;5049668;28;20036;-77
2022/02/26 12:11:24;;;;;;;4.45;2.17;;;10.70;47.70;;;;;;5045923;28;20104;-78
2022/02/26 12:14:16;;;;;;;4.72;2.10;;;10.90;48.80;;;;;;5050768;28;20060;-78
2022/02/26 12:16:42;;;;;;;3.67;1.70;;;11.10;47.90;;;;;;5044191;28;20604;-78
2022/02/26 12:19:08;;;;;;;4.88;2.50;;;11.10;46.90;;;;;;5045878;28;20114;-77
2022/02/26 12:21:37;;;;;;;7.50;2.60;;;11.00;46.90;;;;;;5040111;28;20021;-77
2022/02/26 12:24:13;;;;;;;6.88;2.08;;;10.90;46.90;;;;;;5046082;28;20060;-74
2022/02/26 12:26:57;;;;;;;7.13;2.40;;;11.20;47.40;;;;;;5046291;28;20480;-77
2022/02/26 12:29:44;;;;;;;6.85;2.53;;;11.30;46.70;;;;;;5045612;28;20533;-77
2022/02/26 12:32:27;;;;;;;4.90;2.50;;;11.40;45.10;;;;;;5048155;28;20056;-78
2022/02/26 12:35:09;;;;;;;6.60;2.42;;;11.30;44.30;;;;;;5051648;28;20029;-76
2022/02/26 12:37:38;;;;;;;5.47;1.88;;;11.30;46.00;;;;;;5053844;28;20072;-71
2022/02/26 12:40:29;;;;;;;7.50;2.60;;;11.60;46.40;;;;;;5053602;28;20043;-72
2022/02/26 12:43:02;;;;;;;4.15;2.03;;;11.40;46.80;;;;;;5051956;28;20078;-73
2022/02/26 12:45:38;;;;;;;6.38;2.70;;;11.30;44.40;;;;;;5061669;28;20029;-73
2022/02/26 12:48:04;;;;;;;6.25;2.45;;;11.50;44.50;;;;;;5053672;28;20083;-73
2022/02/26 12:50:34;;;;;;;5.97;2.63;;;11.60;45.10;;;;;;5052386;28;20028;-73
2022/02/26 12:53:00;;;;;;;;;;;11.50;44.10;;;;;;5052135;28;20033;-73
2022/02/26 12:55:26;;;;;;;4.10;2.10;;;11.60;44.10;;;;;;5052161;28;19911;-72
2022/02/26 12:57:52;;;;;;;4.28;2.13;;;11.50;42.00;;;;;;5050557;28;20044;-72
2022/02/26 13:00:31;;;;;;;5.85;2.00;;;11.60;43.10;;;;;;5051255;28;20025;-72
2022/02/26 13:02:59;;;;;;;4.55;2.33;;;11.80;44.40;;;;;;5051319;28;20075;-72
2022/02/26 13:05:28;;;;;;;3.90;2.47;;;11.70;45.10;;;;;;5053318;28;20021;-73
2022/02/26 13:08:02;;;;;;;6.25;2.67;;;11.80;45.70;;;;;;5052042;28;20067;-73
2022/02/26 13:10:50;;;;;;;4.53;2.25;;;11.70;44.90;;;;;;5051362;28;20021;-74
2022/02/26 13:13:20;;;;;;;4.95;2.05;;;11.80;45.90;;;;;;5046990;28;20037;-74
2022/02/26 13:15:47;;;;;;;;;;;11.90;45.60;;;;;;5048782;28;20107;-74
2022/02/26 13:18:13;;;;;;;3.92;1.92;;;11.80;43.90;;;;;;5039659;28;19912;-74
2022/02/26 13:20:40;;;;;;;7.25;2.15;;;11.80;42.50;;;;;;5044674;28;20136;-74
2022/02/26 13:23:08;;;;;;;3.78;1.60;;;11.80;43.00;;;;;;5041119;28;20040;-74
2022/02/26 13:25:41;;;;;;;9.13;2.25;;;11.90;43.10;;;;;;5047558;28;20120;-74
2022/02/26 13:28:08;;;;;;;3.08;1.70;;;12.00;42.30;;;;;;5052348;28;20040;-74
2022/02/26 13:30:35;;;;;;;6.85;2.10;;;11.70;40.50;;;;;;5038014;28;20025;-74
2022/02/26 13:33:02;;;;;;;3.92;1.88;;;11.80;41.20;;;;;;5053158;28;20026;-74
2022/02/26 13:35:31;;;;;;;4.75;1.95;;;11.90;41.50;;;;;;5038044;28;20100;-74
2022/02/26 13:38:00;;;;;;;4.20;1.65;;;11.90;41.80;;;;;;5036710;28;20057;-74
2022/02/26 13:40:27;;;;;;;8.43;1.90;;;11.90;41.60;;;;;;5037992;28;20030;-74
2022/02/26 13:43:01;;;;;;;6.35;2.13;;;11.80;40.90;;;;;;5036381;28;20546;-74
2022/02/26 13:45:33;;;;;;;2.08;1.27;;;11.90;40.50;;;;;;5036577;28;20036;-74
2022/02/26 13:47:59;;;;;;;3.75;1.67;;;11.90;40.10;;;;;;5037749;28;20025;-74
2022/02/26 13:50:26;;;;;;;7.85;2.92;;;12.00;41.00;;;;;;5036211;28;20517;-74
2022/02/26 13:52:54;;;;;;;4.70;1.85;;;11.80;39.60;;;;;;5036690;28;20033;-74
2022/02/26 13:55:25;;;;;;;1.52;1.40;;;11.80;37.90;;;;;;5037749;28;20052;-74
2022/02/26 13:57:51;;;;;;;3.00;1.13;;;11.80;37.50;;;;;;5037888;28;20083;-74
2022/02/26 14:00:19;;;;;;;4.10;1.70;;;12.00;38.00;;;;;;5036176;28;20128;-74
2022/02/26 14:03:00;;;;;;;3.03;1.98;;;12.20;38.60;;;;;;5037610;28;20036;-74
2022/02/26 14:05:30;;;;;;;2.58;1.48;;;12.30;38.20;;;;;;5036074;28;20164;-74
2022/02/26 14:07:56;;;;;;;6.18;1.73;;;12.30;37.90;;;;;;5036021;28;20048;-74
2022/02/26 14:10:23;;;;;;;5.45;2.15;;;12.30;37.80;;;;;;5035892;28;20032;-74
2022/02/26 14:12:56;;;;;;;4.28;1.90;;;12.20;38.90;;;;;;5042650;28;20033;-74
2022/02/26 14:15:23;;;;;;;3.30;1.77;;;12.30;40.70;;;;;;5060761;28;20118;-74
2022/02/26 14:17:54;;;;;;;7.38;2.50;;;12.30;38.40;;;;;;5057679;28;20037;-74
2022/02/26 14:20:29;;;;;;;5.10;1.88;;;12.20;35.50;;;;;;5057091;28;20013;-73
2022/02/26 14:23:04;;;;;;;5.75;2.13;;;12.00;36.60;;;;;;5054989;28;20048;-73
2022/02/26 14:25:32;;;;;;;2.42;1.40;;;12.00;35.90;;;;;;5056328;28;20773;-74
2022/02/26 14:27:57;;;;;;;3.47;1.23;;;12.10;36.60;;;;;;5056005;28;20037;-73
2022/02/26 14:30:23;;;;;;;3.25;1.55;;;12.20;36.50;;;;;;5054395;28;20032;-73
2022/02/26 14:32:52;;;;;;;3.45;1.52;;;12.10;35.30;;;;;;5055196;28;20488;-74
2022/02/26 14:35:21;;;;;;;6.72;2.03;;;12.10;34.70;;;;;;5042099;28;20434;-73
2022/02/26 14:37:48;;;;;;;6.07;2.17;;;12.30;35.70;;;;;;5050428;28;20396;-73
2022/02/26 14:40:17;;;;;;;4.03;1.65;;;12.30;35.20;;;;;;5049245;28;20033;-73
2022/02/26 14:42:43;;;;;;;3.60;1.50;;;12.30;34.60;;;;;;5036909;28;20033;-73
2022/02/26 14:45:14;;;;;;;2.63;1.60;;;12.30;32.70;;;;;;5035114;28;20021;-74
2022/02/26 14:47:41;;;;;;;3.75;1.98;;;12.20;32.30;;;;;;5051904;28;20036;-76
2022/02/26 14:50:07;;;;;;;5.07;1.45;;;12.10;33.50;;;;;;5038668;28;20039;-73
2022/02/26 14:52:34;;;;;;;3.60;1.27;;;12.10;34.80;;;;;;5036720;28;20370;-73